Time;durP1;ratioP1;P1;durP2;ratioP2;P2;SDS_P1;SDS_P2;PMS_P1;PMS_P2;Temp;Humidity;BMP_temperature;BMP_pressure;BME280_temperature;BME280_humidity;BME280_pressure;Samples;Min_cycle;Max_cycle;Signal;HPM_P1;HPM_P2
2022/07/11 00:00:10;;;;;;;;;;;;;;;14.24;62.00;99873.66;4975380;28;20353;-75
2022/07/11 00:02:39;;;;;;;;;;;;;;;14.28;62.32;99867.59;4973518;28;20004;-75
2022/07/11 00:05:08;;;;;;;;;;;;;;;14.26;62.45;99869.34;4974383;28;20440;-75
2022/07/11 00:07:37;;;;;;;;;;;;;;;14.16;62.80;99872.91;4975049;28;19930;-75
2022/07/11 00:10:06;;;;;;;;;;;;;;;14.16;63.01;99867.75;4975386;28;19922;-76
2022/07/11 00:12:35;;;;;;;;;;;;;;;14.07;63.54;99862.75;4974475;28;19929;-75
2022/07/11 00:15:04;;;;;;;;;;;;;;;14.26;63.58;99874.50;4974745;28;20380;-76
2022/07/11 00:17:33;;;;;;;;;;;;;;;14.30;62.80;99876.16;4975322;28;19958;-75
2022/07/11 00:20:01;;;;;;;;;;;;;;;14.43;62.87;99882.88;4974956;28;19973;-75
2022/07/11 00:22:30;;;;;;;;;;;;;;;14.46;62.26;99882.84;4974036;28;20017;-76
2022/07/11 00:24:58;;;;;;;;;;;;;;;14.38;62.21;99873.50;4974837;28;19985;-75
2022/07/11 00:27:26;;;;;;;;;;;;;;;14.20;62.36;99868.59;4974286;28;19945;-75
2022/07/11 00:29:55;;;;;;;;;;;;;;;13.95;62.96;99873.16;4974761;28;19922;-75
2022/07/11 00:32:25;;;;;;;;;;;;;;;13.75;63.23;99870.78;4973236;28;20372;-75
2022/07/11 00:34:53;;;;;;;;;;;;;;;13.50;63.85;99868.50;4974788;28;19926;-75
2022/07/11 00:37:22;;;;;;;;;;;;;;;13.40;64.56;99870.31;4974985;28;20299;-76
2022/07/11 00:39:51;;;;;;;;;;;;;;;13.21;64.90;99869.63;4974701;28;19969;-75
2022/07/11 00:42:19;;;;;;;;;;;;;;;13.21;65.47;99874.75;4973144;28;20283;-75
2022/07/11 00:44:48;;;;;;;;;;;;;;;13.27;65.25;99868.69;4972983;28;19922;-75
2022/07/11 00:47:16;;;;;;;;;;;;;;;13.22;65.12;99873.88;4972904;28;19929;-75
2022/07/11 00:49:46;;;;;;;;;;;;;;;13.17;65.06;99864.53;4973818;28;19922;-76
2022/07/11 00:52:14;;;;;;;;;;;;;;;13.13;65.55;99873.94;4973807;28;19922;-76
2022/07/11 00:54:44;;;;;;;;;;;;;;;13.22;65.55;99871.31;4974933;28;19921;-75
2022/07/11 00:57:13;;;;;;;;;;;;;;;13.04;65.69;99879.13;4973700;28;19922;-75
2022/07/11 00:59:41;;;;;;;;;;;;;;;12.96;66.06;99880.88;4974545;28;19922;-75
2022/07/11 01:02:10;;;;;;;;;;;;;;;12.88;66.11;99882.66;4973671;28;19926;-75
2022/07/11 01:04:39;;;;;;;;;;;;;;;12.86;65.92;99883.53;4976746;28;19938;-75
2022/07/11 01:07:09;;;;;;;;;;;;;;;12.77;66.31;99876.72;4978049;28;19928;-75
2022/07/11 01:09:37;;;;;;;;;;;;;;;12.68;66.31;99872.53;4978264;28;20276;-75
2022/07/11 01:12:06;;;;;;;;;;;;;;;12.67;66.68;99881.06;4977160;28;19960;-75
2022/07/11 01:14:35;;;;;;;;;;;;;;;12.63;66.68;99891.34;4977675;28;19922;-75
2022/07/11 01:17:04;;;;;;;;;;;;;;;12.47;66.99;99885.47;4977854;28;19922;-71
2022/07/11 01:19:33;;;;;;;;;;;;;;;12.34;67.43;99888.06;4977782;28;19928;-71
2022/07/11 01:22:03;;;;;;;;;;;;;;;12.39;67.46;99882.09;4976864;28;19922;-71
2022/07/11 01:24:33;;;;;;;;;;;;;;;12.39;67.72;99886.34;4977763;28;19922;-71
2022/07/11 01:27:02;;;;;;;;;;;;;;;12.32;67.73;99888.09;4976797;28;19922;-71
2022/07/11 01:29:31;;;;;;;;;;;;;;;12.29;67.91;99889.78;4977501;28;19922;-71
2022/07/11 01:31:59;;;;;;;;;;;;;;;12.24;68.06;99886.44;4976832;28;19977;-71
2022/07/11 01:34:28;;;;;;;;;;;;;;;12.14;68.49;99884.75;4973885;28;19922;-71
2022/07/11 01:36:56;;;;;;;;;;;;;;;12.08;68.89;99883.06;4977412;28;19928;-71
2022/07/11 01:39:25;;;;;;;;;;;;;;;12.09;69.35;99877.94;4975546;28;20361;-71
2022/07/11 01:41:55;;;;;;;;;;;;;;;12.13;69.36;99877.94;4976131;28;19981;-71
2022/07/11 01:44:23;;;;;;;;;;;;;;;12.29;69.60;99875.31;4977777;28;19922;-71
2022/07/11 01:46:52;;;;;;;;;;;;;;;12.42;69.13;99876.97;4975595;28;19953;-71
2022/07/11 01:49:20;;;;;;;;;;;;;;;12.42;69.02;99881.22;4977799;28;20265;-71
2022/07/11 01:51:49;;;;;;;;;;;;;;;12.55;68.75;99872.59;4977512;28;20431;-71
2022/07/11 01:54:18;;;;;;;;;;;;;;;12.66;68.57;99870.84;4977547;28;20020;-71
2022/07/11 01:56:47;;;;;;;;;;;;;;;12.61;68.33;99872.56;4975182;28;19969;-71
2022/07/11 01:59:16;;;;;;;;;;;;;;;12.54;68.28;99876.03;4977318;28;19922;-71
2022/07/11 02:01:45;;;;;;;;;;;;;;;12.49;68.77;99872.66;4977457;28;19922;-71
2022/07/11 02:04:13;;;;;;;;;;;;;;;12.46;68.85;99877.78;4977050;28;19922;-71
2022/07/11 02:06:42;;;;;;;;;;;;;;;12.53;69.08;99875.19;4974739;28;20426;-71
2022/07/11 02:09:10;;;;;;;;;;;;;;;12.54;69.04;99881.16;4977331;28;19922;-71
2022/07/11 02:11:40;;;;;;;;;;;;;;;12.44;69.11;99876.94;4975264;28;19926;-71
2022/07/11 02:14:08;;;;;;;;;;;;;;;12.35;69.58;99880.41;4976584;28;20376;-71
2022/07/11 02:16:38;;;;;;;;;;;;;;;12.24;70.03;99879.59;4975135;28;19926;-71
2022/07/11 02:19:07;;;;;;;;;;;;;;;12.27;70.24;99876.16;4959836;28;19922;-71
2022/07/11 02:21:36;;;;;;;;;;;;;;;12.22;70.39;99877.88;4976679;28;19925;-71
2022/07/11 02:24:05;;;;;;;;;;;;;;;12.18;70.52;99876.22;4976934;28;20394;-71
2022/07/11 02:26:34;;;;;;;;;;;;;;;12.29;70.78;99885.53;4974675;28;19953;-71
2022/07/11 02:29:02;;;;;;;;;;;;;;;12.46;70.07;99877.78;4959501;28;19957;-71
2022/07/11 02:31:31;;;;;;;;;;;;;;;12.56;69.68;99879.44;4976891;28;20020;-71
2022/07/11 02:34:01;;;;;;;;;;;;;;;12.68;69.10;99874.25;4976468;28;19922;-71
2022/07/11 02:36:30;;;;;;;;;;;;;;;12.80;68.60;99879.28;4972835;28;19922;-72
2022/07/11 02:38:58;;;;;;;;;;;;;;;12.93;67.61;99874.94;4972471;28;19928;-72
2022/07/11 02:41:28;;;;;;;;;;;;;;;13.00;67.27;99877.44;4974332;28;19922;-72
2022/07/11 02:43:57;;;;;;;;;;;;;;;13.05;66.79;99880.81;4976396;28;20372;-71
2022/07/11 02:46:25;;;;;;;;;;;;;;;13.04;66.78;99881.69;4975888;28;20316;-71
2022/07/11 02:48:54;;;;;;;;;;;;;;;12.99;66.63;99880.84;4975265;28;19929;-71
2022/07/11 02:51:24;;;;;;;;;;;;;;;13.02;66.70;99882.56;4976087;28;19977;-71
2022/07/11 02:53:52;;;;;;;;;;;;;;;13.00;66.45;99882.56;4976808;28;19922;-71
2022/07/11 02:56:21;;;;;;;;;;;;;;;12.93;66.84;99886.03;4975257;28;19961;-72
2022/07/11 02:58:50;;;;;;;;;;;;;;;12.84;66.89;99880.97;4976237;28;19922;-71
2022/07/11 03:01:20;;;;;;;;;;;;;;;12.67;67.18;99875.94;4976071;28;20443;-71
2022/07/11 03:03:48;;;;;;;;;;;;;;;12.52;67.81;99870.06;4976234;28;20013;-71
2022/07/11 03:06:17;;;;;;;;;;;;;;;12.32;68.25;99869.31;4974261;28;20295;-71
2022/07/11 03:08:47;;;;;;;;;;;;;;;12.22;68.86;99873.63;4976387;28;20268;-71
2022/07/11 03:11:15;;;;;;;;;;;;;;;12.19;69.41;99872.81;4975018;28;19968;-71
2022/07/11 03:13:43;;;;;;;;;;;;;;;12.21;69.60;99873.66;4975601;28;19922;-72
2022/07/11 03:16:13;;;;;;;;;;;;;;;12.12;69.94;99861.72;4973841;28;19977;-71
2022/07/11 03:18:41;;;;;;;;;;;;;;;12.05;70.31;99858.34;4975939;28;19922;-71
2022/07/11 03:21:10;;;;;;;;;;;;;;;12.09;70.39;99866.88;4975458;28;19929;-71
2022/07/11 03:23:39;;;;;;;;;;;;;;;12.15;70.58;99865.97;4975606;28;19960;-71
2022/07/11 03:26:09;;;;;;;;;;;;;;;12.31;70.73;99872.75;4973669;28;20972;-71
2022/07/11 03:28:38;;;;;;;;;;;;;;;12.39;70.50;99871.00;4956669;28;19922;-71
2022/07/11 03:31:06;;;;;;;;;;;;;;;12.43;70.46;99867.56;4975406;28;20363;-71
2022/07/11 03:33:34;;;;;;;;;;;;;;;12.55;70.09;99867.47;4974890;28;19925;-71
2022/07/11 03:36:03;;;;;;;;;;;;;;;12.57;70.50;99861.50;4975387;28;20484;-71
2022/07/11 03:38:31;;;;;;;;;;;;;;;12.54;70.64;99860.69;4975588;28;19922;-71
2022/07/11 03:41:00;;;;;;;;;;;;;;;12.61;70.76;99857.22;4956640;28;19961;-72
2022/07/11 03:43:30;;;;;;;;;;;;;;;12.82;70.61;99863.91;4975283;28;19926;-71
2022/07/11 03:45:59;;;;;;;;;;;;;;;12.93;69.98;99870.66;4975274;28;19922;-71
2022/07/11 03:48:28;;;;;;;;;;;;;;;12.96;69.89;99870.63;4975203;28;19969;-71
2022/07/11 03:50:57;;;;;;;;;;;;;;;13.02;69.48;99870.59;4974347;28;19928;-71
2022/07/11 03:53:25;;;;;;;;;;;;;;;13.11;69.49;99885.94;4975079;28;19926;-71
2022/07/11 03:55:54;;;;;;;;;;;;;;;13.21;69.87;99876.44;4975158;28;19929;-71
2022/07/11 03:58:23;;;;;;;;;;;;;;;13.37;69.19;99873.75;4973857;28;19926;-71
2022/07/11 04:00:53;;;;;;;;;;;;;;;13.53;69.08;99873.63;4974702;28;20012;-73
2022/07/11 04:03:21;;;;;;;;;;;;;;;13.47;68.66;99878.78;4972173;28;19964;-71
2022/07/11 04:05:49;;;;;;;;;;;;;;;13.40;69.64;99883.13;4975052;28;19921;-71
2022/07/11 04:08:18;;;;;;;;;;;;;;;13.44;69.93;99883.06;4957835;28;19949;-71
2022/07/11 04:10:46;;;;;;;;;;;;;;;13.51;69.68;99880.47;4974978;28;20423;-71
2022/07/11 04:13:19;;;;;;;;;;;;;;;13.53;69.81;99881.31;4973693;28;20020;-71
2022/07/11 04:15:47;;;;;;;;;;;;;;;13.61;69.22;99871.81;4974925;28;19922;-71
2022/07/11 04:18:17;;;;;;;;;;;;;;;13.55;69.00;99877.84;4973216;28;20315;-71
2022/07/11 04:20:46;;;;;;;;;;;;;;;13.57;69.26;99882.97;4972921;28;19929;-72
2022/07/11 04:23:14;;;;;;;;;;;;;;;13.63;68.97;99880.34;4974872;28;19933;-71
2022/07/11 04:25:43;;;;;;;;;;;;;;;13.71;69.04;99883.69;4974899;28;19925;-71
2022/07/11 04:28:11;;;;;;;;;;;;;;;13.76;68.81;99871.66;4973566;28;19922;-71
2022/07/11 04:30:40;;;;;;;;;;;;;;;13.84;69.33;99877.56;4941878;28;19922;-71
2022/07/11 04:33:09;;;;;;;;;;;;;;;13.91;69.23;99881.75;4974762;28;19922;-71
2022/07/11 04:35:40;;;;;;;;;;;;;;;13.93;69.27;99875.75;4974525;28;20316;-71
2022/07/11 04:38:09;;;;;;;;;;;;;;;13.96;69.33;99880.00;4969366;28;19968;-71
2022/07/11 04:40:37;;;;;;;;;;;;;;;13.99;69.27;99879.94;4977625;28;19972;-72
2022/07/11 04:43:06;;;;;;;;;;;;;;;14.09;69.05;99879.81;4975758;28;19944;-71
2022/07/11 04:45:34;;;;;;;;;;;;;;;14.20;68.75;99884.84;4957526;28;19921;-72
2022/07/11 04:48:03;;;;;;;;;;;;;;;14.28;69.17;99883.00;4967963;28;19921;-72
2022/07/11 04:50:32;;;;;;;;;;;;;;;14.30;68.92;99886.44;4967677;28;20372;-75
2022/07/11 04:53:01;;;;;;;;;;;;;;;14.37;68.55;99882.09;4950107;28;20012;-75
2022/07/11 04:55:33;;;;;;;;;;;;;;;14.43;68.00;99882.88;4970628;28;20057;-76
2022/07/11 05:02:08;;;;;;;;;;;;;;;14.74;68.06;99893.56;4919037;28;19929;-75
2022/07/11 05:04:37;;;;;;;;;;;;;;;14.90;67.62;99884.75;4973974;28;19922;-75
2022/07/11 05:07:06;;;;;;;;;;;;;;;15.08;67.72;99888.78;4971930;28;19926;-75
2022/07/11 05:09:36;;;;;;;;;;;;;;;15.19;67.02;99889.44;4973206;28;19977;-75
2022/07/11 05:12:13;;;;;;;;;;;;;;;15.33;66.14;99884.94;4975481;28;19929;-76
2022/07/11 05:14:44;;;;;;;;;;;;;;;15.45;65.67;99889.06;4973862;28;19976;-74
2022/07/11 05:17:12;;;;;;;;;;;;;;;15.45;66.19;99895.06;4976831;28;19929;-76
2022/07/11 05:19:41;;;;;;;;;;;;;;;15.44;66.27;99893.31;4974854;28;19952;-75
2022/07/11 05:22:10;;;;;;;;;;;;;;;15.36;66.29;99895.16;4970510;28;19945;-72
2022/07/11 05:24:40;;;;;;;;;;;;;;;15.39;65.37;99895.97;4967689;28;20390;-74
2022/07/11 05:27:09;;;;;;;;;;;;;;;15.37;65.15;99907.16;4974043;28;19922;-72
2022/07/11 05:29:37;;;;;;;;;;;;;;;15.32;65.28;99909.81;4974601;28;20016;-72
2022/07/11 05:32:06;;;;;;;;;;;;;;;15.34;65.34;99902.91;4955195;28;20009;-72
2022/07/11 05:34:35;;;;;;;;;;;;;;;15.60;65.44;99914.50;4973988;28;19922;-72
2022/07/11 05:37:03;;;;;;;;;;;;;;;15.88;65.08;99914.00;4969564;28;19922;-75
2022/07/11 05:39:31;;;;;;;;;;;;;;;16.18;64.28;99914.28;4972616;28;19922;-75
2022/07/11 05:42:01;;;;;;;;;;;;;;;16.48;63.93;99914.53;4978615;28;19926;-75
2022/07/11 05:44:30;;;;;;;;;;;;;;;16.69;62.85;99916.69;4976709;28;19926;-75
2022/07/11 05:47:02;;;;;;;;;;;;;;;16.88;61.66;99911.97;4977368;28;20025;-73
2022/07/11 05:49:32;;;;;;;;;;;;;;;17.04;60.95;99905.56;4977090;28;19921;-72
2022/07/11 05:52:01;;;;;;;;;;;;;;;17.29;60.06;99900.69;4977293;28;19922;-74
2022/07/11 05:54:30;;;;;;;;;;;;;;;17.58;59.18;99907.72;4977458;28;20283;-72
2022/07/11 05:56:58;;;;;;;;;;;;;;;17.72;58.07;99908.22;4977166;28;19969;-72
2022/07/11 05:59:29;;;;;;;;;;;;;;;17.78;57.66;99903.72;4977427;28;20025;-71
2022/07/11 06:01:57;;;;;;;;;;;;;;;17.97;57.11;99906.69;4959907;28;19969;-74
2022/07/11 06:04:26;;;;;;;;;;;;;;;18.08;56.52;99902.94;4977319;28;19922;-74
2022/07/11 06:06:54;;;;;;;;;;;;;;;18.24;56.20;99911.06;4976959;28;20008;-71
2022/07/11 06:09:22;;;;;;;;;;;;;;;18.35;55.65;99909.06;4977230;28;19922;-72
2022/07/11 06:11:51;;;;;;;;;;;;;;;18.29;54.82;99898.88;4976876;28;20439;-71
2022/07/11 06:14:20;;;;;;;;;;;;;;;18.14;55.33;99899.31;4976672;28;19945;-74
2022/07/11 06:16:50;;;;;;;;;;;;;;;18.22;55.15;99902.53;4976861;28;19933;-73
2022/07/11 06:19:19;;;;;;;;;;;;;;;18.28;54.91;99898.94;4976822;28;20016;-72
2022/07/11 06:22:02;;;;;;;;;;;;;;;18.36;54.92;99895.22;4959426;28;19953;-75
2022/07/11 06:24:31;;;;;;;;;;;;;;;18.34;54.39;99897.00;4975150;28;20032;-74
2022/07/11 06:27:00;;;;;;;;;;;;;;;18.40;54.51;99896.84;4976575;28;19973;-74
2022/07/11 06:29:30;;;;;;;;;;;;;;;18.52;54.23;99885.34;4976829;28;20024;-75
2022/07/11 06:31:59;;;;;;;;;;;;;;;18.56;53.94;99887.78;4976453;28;19929;-71
2022/07/11 06:34:28;;;;;;;;;;;;;;;18.57;53.62;99884.28;4977109;28;19953;-74
2022/07/11 06:36:56;;;;;;;;;;;;;;;18.56;53.74;99887.78;4976399;28;19926;-71
2022/07/11 06:39:25;;;;;;;;;;;;;;;18.67;53.29;99884.84;4976699;28;19949;-73
2022/07/11 06:41:53;;;;;;;;;;;;;;;18.82;52.79;99883.53;4976520;28;20352;-71
2022/07/11 06:44:22;;;;;;;;;;;;;;;18.93;52.91;99881.47;4976513;28;20288;-71
2022/07/11 06:46:56;;;;;;;;;;;;;;;19.05;52.67;99881.09;4976293;28;19926;-74
2022/07/11 06:49:26;;;;;;;;;;;;;;;19.23;52.13;99870.13;4976066;28;19922;-72
2022/07/11 06:51:54;;;;;;;;;;;;;;;19.26;51.22;99870.03;4959141;28;20269;-71
2022/07/11 06:54:23;;;;;;;;;;;;;;;19.33;51.11;99876.72;4959165;28;19968;-74
2022/07/11 06:56:51;;;;;;;;;;;;;;;19.30;51.27;99866.44;4975941;28;19922;-74
2022/07/11 06:59:20;;;;;;;;;;;;;;;19.34;50.91;99878.38;4976007;28;19926;-71
2022/07/11 07:01:48;;;;;;;;;;;;;;;19.39;50.44;99881.69;4968977;28;20021;-75
2022/07/11 07:04:16;;;;;;;;;;;;;;;19.54;50.58;99870.00;4960711;28;19980;-71
2022/07/11 07:06:46;;;;;;;;;;;;;;;19.58;50.79;99877.59;4956919;29;20403;-71
2022/07/11 07:09:15;;;;;;;;;;;;;;;19.65;50.61;99879.06;4963292;28;19949;-74
2022/07/11 07:11:43;;;;;;;;;;;;;;;19.72;50.62;99880.59;4976019;28;19922;-71
2022/07/11 07:14:12;;;;;;;;;;;;;;;19.68;50.02;99876.38;4975702;28;20383;-71
2022/07/11 07:16:43;;;;;;;;;;;;;;;19.55;50.42;99875.13;4975717;28;20368;-72
2022/07/11 07:19:12;;;;;;;;;;;;;;;19.52;50.33;99872.63;4975971;28;20439;-73
2022/07/11 07:21:40;;;;;;;;;;;;;;;19.64;50.72;99877.41;4975559;28;20380;-73
2022/07/11 07:24:10;;;;;;;;;;;;;;;19.78;50.63;99875.19;4975516;28;19922;-75
2022/07/11 07:26:45;;;;;;;;;;;;;;;19.90;50.14;99874.75;4975528;28;19922;-72
2022/07/11 07:29:13;;;;;;;;;;;;;;;20.05;50.41;99879.38;4975496;28;19976;-75
2022/07/11 07:31:41;;;;;;;;;;;;;;;20.16;50.05;99885.91;4973605;28;20009;-75
2022/07/11 07:34:10;;;;;;;;;;;;;;;20.25;50.26;99881.25;4965423;28;20005;-75
2022/07/11 07:36:38;;;;;;;;;;;;;;;20.32;50.00;99881.91;4972429;28;20311;-75
2022/07/11 07:39:07;;;;;;;;;;;;;;;20.34;49.45;99877.50;4975285;28;19988;-73
2022/07/11 07:41:37;;;;;;;;;;;;;;;20.37;48.73;99873.03;4973552;28;20284;-74
2022/07/11 07:44:06;;;;;;;;;;;;;;;20.42;48.14;99880.66;4971839;28;19961;-72
2022/07/11 07:46:34;;;;;;;;;;;;;;;20.46;46.80;99874.44;4975312;28;19926;-71
2022/07/11 07:49:03;;;;;;;;;;;;;;;20.52;46.80;99880.25;4975496;28;19977;-71
2022/07/11 07:51:32;;;;;;;;;;;;;;;20.57;46.51;99878.31;4975851;28;20025;-71
2022/07/11 07:54:00;;;;;;;;;;;;;;;20.62;45.44;99870.34;4975121;28;20380;-71
2022/07/11 07:56:28;;;;;;;;;;;;;;;20.65;45.35;99875.44;4975471;28;19926;-71
2022/07/11 07:58:58;;;;;;;;;;;;;;;20.63;44.48;99877.25;4975344;28;20371;-71
2022/07/11 08:04:12;;;;;;;;;;;;;;;20.57;44.53;99877.47;4974185;28;20372;-75
2022/07/11 08:06:40;;;;;;;;;;;;;;;20.52;44.56;99872.47;4954625;28;19922;-74
2022/07/11 08:09:09;;;;;;;;;;;;;;;20.49;44.31;99874.34;4955740;29;20032;-75
2022/07/11 08:11:37;;;;;;;;;;;;;;;20.47;43.86;99870.94;4955699;29;19926;-75
2022/07/11 08:14:08;;;;;;;;;;;;;;;20.50;43.52;99876.00;4960002;28;20020;-75
2022/07/11 08:16:36;;;;;;;;;;;;;;;20.55;43.85;99879.28;4969951;28;19961;-75
2022/07/11 08:19:05;;;;;;;;;;;;;;;20.57;43.86;99878.31;4961892;28;19989;-75
2022/07/11 08:21:34;;;;;;;;;;;;;;;20.61;43.84;99868.69;4979226;28;19922;-74
2022/07/11 08:24:03;;;;;;;;;;;;;;;20.59;43.50;99875.66;4978780;28;19922;-74
2022/07/11 08:26:33;;;;;;;;;;;;;;;20.66;43.11;99874.50;4978482;28;19929;-75
2022/07/11 08:29:02;;;;;;;;;;;;;;;20.70;43.17;99873.50;4978301;28;20312;-75
2022/07/11 08:31:33;;;;;;;;;;;;;;;20.71;43.45;99878.63;4965953;28;19957;-75
2022/07/11 08:34:02;;;;;;;;;;;;;;;20.73;42.96;99873.41;4967895;28;19929;-75
2022/07/11 08:36:34;;;;;;;;;;;;;;;20.77;43.21;99874.97;4959301;29;19965;-75
2022/07/11 08:39:03;;;;;;;;;;;;;;;20.78;42.60;99868.84;4959630;29;19922;-74
2022/07/11 08:41:32;;;;;;;;;;;;;;;20.83;42.68;99874.72;4972272;28;19929;-74
2022/07/11 08:44:00;;;;;;;;;;;;;;;20.89;43.00;99869.28;4978703;28;19961;-75
2022/07/11 08:46:30;;;;;;;;;;;;;;;20.91;42.59;99877.84;4976676;28;19929;-75
2022/07/11 08:49:00;;;;;;;;;;;;;;;20.95;42.08;99879.41;4978250;28;19922;-76
2022/07/11 08:51:29;;;;;;;;;;;;;;;21.06;41.63;99876.44;4960541;28;20296;-76
2022/07/11 08:53:57;;;;;;;;;;;;;;;21.01;41.63;99874.00;4976361;28;19926;-75
2022/07/11 08:56:26;;;;;;;;;;;;;;;21.05;41.91;99878.19;4961130;28;19969;-76
2022/07/11 08:58:55;;;;;;;;;;;;;;;20.95;41.38;99884.59;4958954;29;20373;-75
2022/07/11 09:01:27;;;;;;;;;;;;;;;20.93;40.89;99880.38;4958834;29;19940;-76
2022/07/11 09:03:56;;;;;;;;;;;;;;;20.91;41.13;99877.84;4958876;29;19922;-75
2022/07/11 09:06:26;;;;;;;;;;;;;;;20.83;41.18;99882.50;4966031;28;19961;-76
2022/07/11 09:08:57;;;;;;;;;;;;;;;20.80;40.76;99880.03;4978081;28;19928;-76
2022/07/11 09:11:26;;;;;;;;;;;;;;;20.83;41.42;99886.88;4977975;28;20013;-75
2022/07/11 09:13:54;;;;;;;;;;;;;;;20.84;42.68;99886.78;4977878;28;20257;-75
2022/07/11 09:16:26;;;;;;;;;;;;;;;20.82;43.05;99883.41;4978068;28;19922;-75
2022/07/11 09:19:00;;;;;;;;;;;;;;;20.81;43.46;99886.91;4978192;28;19945;-72
2022/07/11 09:26:48;;;;;;;;;;;;;;;20.64;44.36;99892.75;4977811;28;19973;-75
2022/07/11 09:29:18;;;;;;;;;;;;;;;20.64;44.61;99889.28;4978051;28;19976;-76
2022/07/11 09:31:47;;;;;;;;;;;;;;;20.66;44.91;99887.47;4976990;28;19922;-71
2022/07/11 09:34:17;;;;;;;;;;;;;;;20.67;44.78;99878.81;4977885;28;19985;-71
2022/07/11 09:36:48;;;;;;;;;;;;;;;20.72;44.34;99882.06;4977447;28;19977;-75
2022/07/11 09:39:18;;;;;;;;;;;;;;;20.72;44.55;99882.06;4977909;28;20328;-75
2022/07/11 09:41:47;;;;;;;;;;;;;;;20.74;44.04;99885.44;4977435;28;19972;-75
2022/07/11 09:44:17;;;;;;;;;;;;;;;20.81;44.20;99886.03;4977435;28;19922;-73
2022/07/11 09:46:46;;;;;;;;;;;;;;;20.93;43.97;99876.03;4977405;28;19929;-71
2022/07/11 09:49:16;;;;;;;;;;;;;;;21.08;43.85;99880.66;4977189;28;19922;-71
2022/07/11 09:51:44;;;;;;;;;;;;;;;21.17;43.48;99879.44;4959113;28;20343;-72
2022/07/11 09:54:14;;;;;;;;;;;;;;;21.30;43.97;99876.28;4977335;28;19957;-71
2022/07/11 09:56:44;;;;;;;;;;;;;;;21.40;44.22;99873.31;4977223;28;19922;-75
2022/07/11 09:59:29;;;;;;;;;;;;;;;21.52;43.21;99876.25;4973115;28;20284;-71
2022/07/11 10:01:58;;;;;;;;;;;;;;;21.66;42.93;99875.66;4972839;28;19969;-73
2022/07/11 10:04:27;;;;;;;;;;;;;;;21.78;42.19;99872.53;4976369;28;20368;-71
2022/07/11 10:06:55;;;;;;;;;;;;;;;22.01;42.65;99872.38;4968552;28;19922;-71
2022/07/11 10:09:26;;;;;;;;;;;;;;;22.11;41.60;99876.28;4968565;28;20375;-72
2022/07/11 10:11:54;;;;;;;;;;;;;;;22.28;41.68;99868.56;4976424;28;19949;-71
2022/07/11 10:14:23;;;;;;;;;;;;;;;22.45;41.32;99866.03;4976413;28;19977;-73
2022/07/11 10:16:59;;;;;;;;;;;;;;;22.53;40.93;99861.28;4976701;28;19930;-71
2022/07/11 10:19:34;;;;;;;;;;;;;;;22.82;40.96;99859.94;4976218;28;19936;-73
2022/07/11 10:22:07;;;;;;;;;;;;;;;23.23;40.11;99860.53;4976262;28;19930;-75
2022/07/11 10:24:43;;;;;;;;;;;;;;;23.69;39.31;99853.91;4976805;28;19977;-75
2022/07/11 10:27:17;;;;;;;;;;;;;;;24.04;38.73;99855.53;4976748;28;19973;-73
2022/07/11 10:29:50;;;;;;;;;;;;;;;24.18;37.03;99853.06;4976679;28;19946;-73
2022/07/11 10:32:19;;;;;;;;;;;;;;;24.20;36.47;99845.97;4976558;28;19922;-74
2022/07/11 10:35:06;;;;;;;;;;;;;;;24.45;36.79;99848.13;4976916;28;20368;-71
2022/07/11 10:37:46;;;;;;;;;;;;;;;24.27;36.05;99846.50;4976127;28;20348;-74
2022/07/11 10:40:37;;;;;;;;;;;;;;;23.95;36.16;99851.63;4976449;28;19929;-75
2022/07/11 10:43:05;;;;;;;;;;;;;;;23.61;36.18;99846.47;4973599;28;19927;-74
2022/07/11 10:45:48;;;;;;;;;;;;;;;23.40;36.69;99844.94;4975718;28;20391;-74
2022/07/11 10:48:17;;;;;;;;;;;;;;;23.12;37.04;99842.88;4973654;28;19928;-72
2022/07/11 10:50:45;;;;;;;;;;;;;;;22.95;37.34;99842.84;4975593;28;20365;-76
2022/07/11 10:53:22;;;;;;;;;;;;;;;22.83;37.26;99842.59;4973381;28;19946;-73
2022/07/11 10:56:06;;;;;;;;;;;;;;;22.72;37.92;99852.69;4976002;28;19926;-72
2022/07/11 10:58:42;;;;;;;;;;;;;;;22.71;38.38;99861.38;4976080;28;19928;-73
2022/07/11 11:01:11;;;;;;;;;;;;;;;22.55;38.57;99859.50;4976043;28;20016;-71
2022/07/11 11:03:40;;;;;;;;;;;;;;;22.47;38.90;99859.00;4976064;28;19926;-75
2022/07/11 11:06:09;;;;;;;;;;;;;;;22.36;39.81;99861.22;4975916;28;20324;-75
2022/07/11 11:08:47;;;;;;;;;;;;;;;22.55;40.06;99851.69;4976181;28;19929;-71
2022/07/11 11:11:26;;;;;;;;;;;;;;;22.78;40.02;99849.75;4975842;28;19922;-74
2022/07/11 11:14:11;;;;;;;;;;;;;;;22.90;39.39;99842.22;4976077;28;19928;-75
2022/07/11 11:16:41;;;;;;;;;;;;;;;23.21;38.82;99841.56;4973715;28;19977;-72
2022/07/11 11:19:29;;;;;;;;;;;;;;;23.42;38.16;99835.28;4976005;28;19921;-71
2022/07/11 11:22:02;;;;;;;;;;;;;;;23.66;38.21;99838.44;4975391;28;19922;-72
2022/07/11 11:24:30;;;;;;;;;;;;;;;23.85;38.19;99829.56;4975989;28;19972;-72
2022/07/11 11:27:01;;;;;;;;;;;;;;;23.84;38.64;99832.25;4975516;28;20372;-71
2022/07/11 11:29:30;;;;;;;;;;;;;;;23.66;37.75;99823.63;4975454;28;19922;-71
2022/07/11 11:32:00;;;;;;;;;;;;;;;23.71;38.06;99823.38;4975523;28;19926;-75
2022/07/11 11:34:30;;;;;;;;;;;;;;;23.75;37.80;99812.72;4975574;28;19926;-75
2022/07/11 11:37:01;;;;;;;;;;;;;;;23.81;37.49;99812.41;4975446;28;19922;-75
2022/07/11 11:39:31;;;;;;;;;;;;;;;23.93;36.87;99816.13;4969032;28;19928;-75
2022/07/11 11:42:07;;;;;;;;;;;;;;;23.96;36.18;99816.81;4973300;28;20360;-75
2022/07/11 11:44:48;;;;;;;;;;;;;;;23.78;35.29;99817.75;4972508;28;19922;-73
2022/07/11 11:47:18;;;;;;;;;;;;;;;23.88;35.28;99823.34;4972395;28;20388;-76
2022/07/11 11:49:47;;;;;;;;;;;;;;;23.94;34.37;99818.66;4974024;28;19921;-70
2022/07/11 11:52:16;;;;;;;;;;;;;;;24.20;34.54;99819.03;4971594;28;19922;-74
2022/07/11 11:54:45;;;;;;;;;;;;;;;24.18;34.42;99823.50;4974998;28;19960;-71
2022/07/11 11:57:13;;;;;;;;;;;;;;;24.41;35.03;99817.88;4975092;28;19926;-77
2022/07/11 11:59:42;;;;;;;;;;;;;;;24.48;34.58;99814.00;4973614;28;19948;-71
2022/07/11 12:02:11;;;;;;;;;;;;;;;24.51;34.01;99808.59;4975109;28;19922;-73
2022/07/11 12:04:42;;;;;;;;;;;;;;;24.41;33.03;99810.03;4968528;28;19926;-73
2022/07/11 12:07:11;;;;;;;;;;;;;;;24.40;33.03;99801.38;4971415;28;20385;-72
2022/07/11 12:14:58;;;;;;;;;;;;;;;24.57;35.09;99796.06;4972335;28;19926;-70
2022/07/11 12:17:29;;;;;;;;;;;;;;;24.72;35.02;99806.56;4973672;28;19922;-71
2022/07/11 12:19:59;;;;;;;;;;;;;;;24.47;35.10;99807.09;4974360;28;19977;-71
2022/07/11 12:22:27;;;;;;;;;;;;;;;24.47;35.19;99807.97;4972822;28;19944;-75
2022/07/11 12:24:56;;;;;;;;;;;;;;;24.57;35.60;99816.13;4974183;28;19968;-73
2022/07/11 12:27:26;;;;;;;;;;;;;;;24.80;35.96;99814.84;4974804;28;19977;-71
2022/07/11 12:29:55;;;;;;;;;;;;;;;24.95;35.29;99808.75;4970038;28;20395;-73
2022/07/11 12:32:23;;;;;;;;;;;;;;;25.03;35.35;99816.97;4970038;28;19997;-73
2022/07/11 12:34:52;;;;;;;;;;;;;;;25.07;34.87;99808.03;4973675;28;19922;-71
2022/07/11 12:37:38;;;;;;;;;;;;;;;25.17;34.70;99812.63;4974415;28;19965;-71
2022/07/11 12:40:08;;;;;;;;;;;;;;;25.19;33.88;99812.56;4974275;28;20038;-71
2022/07/11 12:42:46;;;;;;;;;;;;;;;25.02;33.34;99810.94;4972836;28;19934;-71
2022/07/11 12:45:15;;;;;;;;;;;;;;;25.21;34.47;99806.31;4966080;28;19929;-72
2022/07/11 12:47:45;;;;;;;;;;;;;;;25.24;32.94;99808.72;4974246;28;20376;-71
2022/07/11 12:50:15;;;;;;;;;;;;;;;25.41;32.85;99797.28;4973816;28;19977;-72
2022/07/11 12:52:47;;;;;;;;;;;;;;;25.29;32.02;99804.06;4960773;28;19923;-75
2022/07/11 12:55:23;;;;;;;;;;;;;;;25.31;31.50;99802.19;4955415;29;19929;-72
2022/07/11 12:58:03;;;;;;;;;;;;;;;25.32;31.54;99792.59;4965840;28;19969;-71
2022/07/11 13:00:32;;;;;;;;;;;;;;;25.55;31.63;99804.34;4975161;28;20370;-72
2022/07/11 13:03:00;;;;;;;;;;;;;;;25.60;31.61;99802.28;4978111;28;19926;-75
2022/07/11 13:05:29;;;;;;;;;;;;;;;25.61;30.93;99796.13;4978338;28;19926;-73
2022/07/11 13:13:33;;;;;;;;;;;;;;;25.43;31.69;99790.19;4978052;28;19922;-74
2022/07/11 13:16:02;;;;;;;;;;;;;;;25.61;32.33;99788.28;4976461;28;19922;-71
2022/07/11 13:18:30;;;;;;;;;;;;;;;25.65;32.03;99795.00;4962898;28;20368;-72
2022/07/11 13:21:00;;;;;;;;;;;;;;;25.65;31.28;99795.84;4964994;28;19922;-74
2022/07/11 13:23:31;;;;;;;;;;;;;;;25.76;31.71;99789.97;4991885;28;20295;-71